createdAt,value
2023-02-15T00:02:14.187Z,85.04
2023-02-15T00:06:17.336Z,84.92
2023-02-15T00:10:18.761Z,85.20
2023-02-15T00:14:21.680Z,85.49
2023-02-15T00:18:23.050Z,84.92
2023-02-15T00:22:26.336Z,85.42
2023-02-15T00:26:28.387Z,84.90
2023-02-15T00:30:31.865Z,84.85
2023-02-15T00:34:33.486Z,85.08
2023-02-15T00:38:36.782Z,84.83
2023-02-15T00:42:38.102Z,85.08
2023-02-15T00:46:39.562Z,84.82
2023-02-15T00:50:40.944Z,85.10
2023-02-15T00:54:43.620Z,85.06
2023-02-15T00:58:45.429Z,85.29
2023-02-15T01:02:46.784Z,85.78
2023-02-15T01:06:48.176Z,85.76
2023-02-15T01:10:50.968Z,85.72
2023-02-15T01:14:52.341Z,86.00
2023-02-15T01:18:54.413Z,85.88
2023-02-15T01:22:57.446Z,85.92
2023-02-15T01:27:00.130Z,86.26
2023-02-15T01:31:06.165Z,85.97
2023-02-15T01:35:08.334Z,86.10
2023-02-15T01:39:09.692Z,86.22
2023-02-15T01:43:13.046Z,86.11
2023-02-15T01:47:17.329Z,86.16
2023-02-15T01:51:23.278Z,86.61
2023-02-15T01:55:29.713Z,86.46
2023-02-15T01:59:33.609Z,86.64
2023-02-15T02:03:44.418Z,86.27
2023-02-15T02:07:47.526Z,86.62
2023-02-15T02:11:49.320Z,86.83
2023-02-15T02:16:01.687Z,86.96
2023-02-15T02:20:29.568Z,87.07
2023-02-15T02:25:06.730Z,87.27
2023-02-15T02:29:54.763Z,87.34
2023-02-15T02:34:05.488Z,87.48
2023-02-15T02:38:12.584Z,87.50
2023-02-15T02:42:20.699Z,87.50
2023-02-15T02:46:28.363Z,87.74
2023-02-15T02:50:31.562Z,87.35
2023-02-15T02:54:35.509Z,88.06
2023-02-15T02:58:41.430Z,88.18
2023-02-15T03:02:47.230Z,88.11
2023-02-15T03:06:54.649Z,88.26
2023-02-15T03:10:59.758Z,88.34
2023-02-15T03:15:03.917Z,88.62
2023-02-15T03:19:10.111Z,88.62
2023-02-15T03:23:17.597Z,88.95
2023-02-15T03:27:23.803Z,88.82
2023-02-15T03:31:29.177Z,88.58
2023-02-15T03:35:38.473Z,89.12
2023-02-15T03:39:48.955Z,88.97
2023-02-15T03:43:54.544Z,88.98
2023-02-15T03:47:59.548Z,88.83
2023-02-15T03:52:04.657Z,89.20
2023-02-15T03:56:07.387Z,88.73
2023-02-15T04:00:14.359Z,88.79
2023-02-15T04:04:19.997Z,89.13
2023-02-15T04:08:21.526Z,89.16
2023-02-15T04:12:24.333Z,89.61
2023-02-15T04:16:26.375Z,89.58
2023-02-15T04:20:27.767Z,89.61
2023-02-15T04:24:29.133Z,89.48
2023-02-15T04:28:32.067Z,89.75
2023-02-15T04:32:33.522Z,89.59
2023-02-15T04:36:34.887Z,89.41
2023-02-15T04:40:36.294Z,89.23
2023-02-15T04:44:38.987Z,89.90
2023-02-15T04:48:40.347Z,89.78
2023-02-15T04:52:41.708Z,89.73
2023-02-15T04:56:43.167Z,89.74
2023-02-15T05:00:45.875Z,90.29
2023-02-15T05:04:47.262Z,89.85
2023-02-15T05:08:48.643Z,89.92
2023-02-15T05:12:50.008Z,90.15
2023-02-15T05:16:52.758Z,90.09
2023-02-15T05:20:54.167Z,90.33
2023-02-15T05:24:55.663Z,90.14
2023-02-15T05:28:57.068Z,89.92
2023-02-15T05:32:59.780Z,89.67
2023-02-15T05:37:01.138Z,89.92
2023-02-15T05:41:02.467Z,90.05
2023-02-15T05:45:04.473Z,89.85
2023-02-15T05:49:07.471Z,90.35
2023-02-15T05:53:08.841Z,90.34
2023-02-15T05:57:10.252Z,90.41
2023-02-15T06:01:13.801Z,90.73
2023-02-15T06:05:16.762Z,90.54
2023-02-15T06:09:18.123Z,90.74
2023-02-15T06:13:19.469Z,90.43
2023-02-15T06:17:20.826Z,90.31
2023-02-15T06:21:23.518Z,90.51
2023-02-15T06:25:24.945Z,90.50
2023-02-15T06:29:26.356Z,90.39
2023-02-15T06:33:27.805Z,90.33
2023-02-15T06:37:30.602Z,90.55
2023-02-15T06:41:31.961Z,90.43
2023-02-15T06:45:39.745Z,90.50
2023-02-15T06:49:41.102Z,90.45
2023-02-15T06:53:43.826Z,90.86
2023-02-15T06:57:45.221Z,90.57
2023-02-15T07:01:46.638Z,90.47
2023-02-15T07:05:48.078Z,90.61
2023-02-15T07:09:50.812Z,90.51
2023-02-15T07:13:52.276Z,90.69
2023-02-15T07:17:53.666Z,90.46
2023-02-15T07:21:55.127Z,90.24
2023-02-15T07:25:59.188Z,90.56
2023-02-15T07:30:00.710Z,89.88
2023-02-15T07:34:02.099Z,89.48
2023-02-15T07:38:03.491Z,89.04
2023-02-15T07:42:06.224Z,88.97
2023-02-15T07:46:09.546Z,88.95
2023-02-15T07:50:10.970Z,88.88
2023-02-15T07:54:12.344Z,88.04
2023-02-15T07:58:15.084Z,88.14
2023-02-15T08:02:18.368Z,87.43
2023-02-15T08:06:20.744Z,87.80
2023-02-15T08:10:24.240Z,86.92
2023-02-15T08:14:28.538Z,86.38
2023-02-15T08:18:29.867Z,85.95
2023-02-15T08:22:31.226Z,85.92
2023-02-15T08:26:33.631Z,85.19
2023-02-15T08:30:36.574Z,84.84
2023-02-15T08:34:41.367Z,83.94
2023-02-15T08:38:43.570Z,83.08
2023-02-15T08:42:44.903Z,82.58
2023-02-15T08:46:49.038Z,82.19
2023-02-15T08:50:50.422Z,81.55
2023-02-15T08:54:52.216Z,80.91
2023-02-15T08:58:54.388Z,80.39
2023-02-15T09:02:57.082Z,80.09
2023-02-15T09:06:58.467Z,79.14
2023-02-15T09:11:10.110Z,78.76
2023-02-15T09:15:11.758Z,78.44
2023-02-15T09:19:14.759Z,77.07
2023-02-15T09:23:25.500Z,76.64
2023-02-15T09:27:28.385Z,76.10
2023-02-15T09:31:31.179Z,75.77
2023-02-15T09:35:33.947Z,74.28
2023-02-15T09:39:40.215Z,73.55
2023-02-15T09:43:47.747Z,72.17
2023-02-15T09:48:21.791Z,72.07
2023-02-15T09:52:39.696Z,72.05
2023-02-15T09:56:48.646Z,71.67
2023-02-15T10:00:59.460Z,70.84
2023-02-15T10:05:16.673Z,70.63
2023-02-15T10:09:32.141Z,69.79
2023-02-15T10:13:39.044Z,69.33
2023-02-15T10:18:05.596Z,69.33
2023-02-15T10:22:20.404Z,68.67
2023-02-15T10:26:26.381Z,67.77
2023-02-15T10:30:36.562Z,67.10
2023-02-15T10:34:39.986Z,65.75
2023-02-15T10:38:45.628Z,64.07
2023-02-15T10:43:05.966Z,62.30
2023-02-15T10:47:26.856Z,59.94
2023-02-15T10:51:38.258Z,60.41
2023-02-15T10:55:51.557Z,58.08
2023-02-15T11:00:14.725Z,57.54
2023-02-15T11:04:47.894Z,54.80
2023-02-15T11:08:54.059Z,53.97
2023-02-15T11:12:57.618Z,52.61
2023-02-15T11:17:06.523Z,51.30
2023-02-15T11:21:12.319Z,49.00
2023-02-15T11:25:19.182Z,50.02
2023-02-15T11:29:27.231Z,48.77
2023-02-15T11:33:42.233Z,48.08
2023-02-15T11:37:49.246Z,47.19
2023-02-15T11:41:56.051Z,49.08
2023-02-15T11:45:57.622Z,48.11
2023-02-15T11:50:00.576Z,47.97
2023-02-15T11:54:03.646Z,46.66
2023-02-15T11:58:13.292Z,47.38
2023-02-15T12:02:17.669Z,47.88
2023-02-15T12:06:27.312Z,48.97
2023-02-15T12:10:32.832Z,49.38
2023-02-15T12:14:47.913Z,49.83
2023-02-15T12:18:50.943Z,49.29
2023-02-15T12:22:59.592Z,50.17
2023-02-15T12:27:04.062Z,50.47
2023-02-15T12:31:19.937Z,50.15
2023-02-15T12:35:29.017Z,49.74
2023-02-15T12:39:32.688Z,49.24
2023-02-15T12:43:35.628Z,49.25
2023-02-15T12:47:37.042Z,49.79
2023-02-15T12:51:47.636Z,48.47
2023-02-15T12:55:56.823Z,49.10
2023-02-15T12:59:59.861Z,49.52
2023-02-15T13:04:04.059Z,49.44
2023-02-15T13:08:11.411Z,49.58
2023-02-15T13:12:20.918Z,49.67
2023-02-15T13:16:28.749Z,50.33
2023-02-15T13:20:30.824Z,49.81
2023-02-15T13:24:36.674Z,49.88
2023-02-15T13:28:44.156Z,50.13
2023-02-15T13:32:48.778Z,49.77
2023-02-15T13:36:55.327Z,50.04
2023-02-15T13:41:02.610Z,50.00
2023-02-15T13:45:26.012Z,50.41
2023-02-15T13:49:40.351Z,49.82
2023-02-15T13:54:04.814Z,51.12
2023-02-15T13:58:24.644Z,49.54
2023-02-15T14:02:52.118Z,49.78
2023-02-15T14:07:07.658Z,50.36
2023-02-15T14:11:18.869Z,49.84
2023-02-15T14:15:33.078Z,50.44
2023-02-15T14:19:42.861Z,50.44
2023-02-15T14:23:59.603Z,50.80
2023-02-15T14:28:06.564Z,50.95
2023-02-15T14:32:13.330Z,51.20
2023-02-15T14:36:20.093Z,51.65
2023-02-15T14:40:34.919Z,52.45
2023-02-15T14:44:39.475Z,52.95
2023-02-15T14:48:45.887Z,52.58
2023-02-15T14:53:20.706Z,52.55
2023-02-15T14:57:34.842Z,52.61
2023-02-15T15:01:39.174Z,52.60
2023-02-15T15:05:49.936Z,52.47
2023-02-15T15:10:00.118Z,52.00
2023-02-15T15:14:04.269Z,52.19
2023-02-15T15:18:11.877Z,52.05
2023-02-15T15:22:19.315Z,52.26
2023-02-15T15:26:32.290Z,52.55
2023-02-15T15:30:51.131Z,52.61
2023-02-15T15:35:12.704Z,52.56
2023-02-15T15:39:32.983Z,53.51
2023-02-15T15:44:23.489Z,52.96
2023-02-15T15:48:33.858Z,53.09
2023-02-15T15:52:36.817Z,52.77
2023-02-15T15:56:38.289Z,53.14
2023-02-15T16:00:43.797Z,53.39
2023-02-15T16:04:47.268Z,53.18
2023-02-15T16:08:48.704Z,53.53
2023-02-15T16:12:50.992Z,53.85
2023-02-15T16:16:56.422Z,54.06
2023-02-15T16:21:01.463Z,54.29
2023-02-15T16:25:31.620Z,54.45
2023-02-15T16:29:34.566Z,55.15
2023-02-15T16:33:37.156Z,55.03
2023-02-15T16:37:40.019Z,55.46
2023-02-15T16:41:41.686Z,57.66
2023-02-15T16:45:43.263Z,59.25
2023-02-15T16:49:47.706Z,59.96
2023-02-15T16:53:51.158Z,61.10
2023-02-15T16:57:56.939Z,61.69
2023-02-15T17:01:58.904Z,61.97
2023-02-15T17:06:02.337Z,61.58
2023-02-15T17:10:27.989Z,62.42
2023-02-15T17:14:31.790Z,62.89
2023-02-15T17:18:39.597Z,61.80
2023-02-15T17:22:41.195Z,62.63
2023-02-15T17:26:44.205Z,61.34
2023-02-15T17:30:46.289Z,62.01
2023-02-15T17:34:58.687Z,61.37
2023-02-15T17:39:06.698Z,61.92
2023-02-15T17:43:09.496Z,62.96
2023-02-15T17:47:15.590Z,62.16
2023-02-15T17:51:19.194Z,61.69
2023-02-15T17:55:22.727Z,63.13
2023-02-15T17:59:25.594Z,63.24
2023-02-15T18:03:34.924Z,63.16
2023-02-15T18:07:36.293Z,65.18
2023-02-15T18:11:37.717Z,65.27
2023-02-15T18:15:40.652Z,64.99
2023-02-15T18:19:43.696Z,65.07
2023-02-15T18:23:45.124Z,64.04
2023-02-15T18:27:46.902Z,64.42
2023-02-15T18:31:53.494Z,65.57
2023-02-15T18:35:54.900Z,66.12
2023-02-15T18:39:56.465Z,66.67
2023-02-15T18:43:57.947Z,67.29
2023-02-15T18:48:00.790Z,67.50
2023-02-15T18:52:02.968Z,68.73
2023-02-15T18:56:04.815Z,68.53
2023-02-15T19:00:14.102Z,68.83
2023-02-15T19:04:16.869Z,68.83
2023-02-15T19:08:20.999Z,69.21
2023-02-15T19:12:22.515Z,69.73
2023-02-15T19:16:30.714Z,69.63
2023-02-15T19:20:37.515Z,70.10
2023-02-15T19:24:41.744Z,70.23
2023-02-15T19:28:43.385Z,69.93
2023-02-15T19:32:45.311Z,71.02
2023-02-15T19:36:51.271Z,71.22
2023-02-15T19:40:53.227Z,71.10
2023-02-15T19:44:54.812Z,71.46
2023-02-15T19:48:56.198Z,71.98
2023-02-15T19:52:59.006Z,71.63
2023-02-15T19:57:01.022Z,72.35
2023-02-15T20:01:02.845Z,72.31
2023-02-15T20:05:04.935Z,71.89
2023-02-15T20:09:07.725Z,71.16
2023-02-15T20:13:12.804Z,71.20
2023-02-15T20:17:14.177Z,71.41
2023-02-15T20:21:16.397Z,71.88
2023-02-15T20:25:21.527Z,71.90
2023-02-15T20:29:22.899Z,71.99
2023-02-15T20:33:24.302Z,70.96
2023-02-15T20:37:29.056Z,71.43
2023-02-15T20:41:31.785Z,72.66
2023-02-15T20:45:34.196Z,72.42
2023-02-15T20:49:38.228Z,73.39
2023-02-15T20:53:39.979Z,73.64
2023-02-15T20:57:43.108Z,73.37
2023-02-15T21:01:44.821Z,73.70
2023-02-15T21:05:46.265Z,73.37
2023-02-15T21:09:48.237Z,73.23
2023-02-15T21:13:50.986Z,73.27
2023-02-15T21:17:52.654Z,72.92
2023-02-15T21:21:54.178Z,73.70
2023-02-15T21:25:56.208Z,73.56
2023-02-15T21:29:58.970Z,74.19
2023-02-15T21:34:00.455Z,74.28
2023-02-15T21:38:01.890Z,74.33
2023-02-15T21:42:10.327Z,74.67
2023-02-15T21:46:14.910Z,75.04
2023-02-15T21:50:18.160Z,74.79
2023-02-15T21:54:20.881Z,75.30
2023-02-15T21:58:24.735Z,74.89
2023-02-15T22:02:29.531Z,74.04
2023-02-15T22:06:30.984Z,73.16
2023-02-15T22:10:33.184Z,72.75
2023-02-15T22:14:36.941Z,72.55
2023-02-15T22:18:39.692Z,73.09
2023-02-15T22:22:41.035Z,73.65
2023-02-15T22:26:42.455Z,73.20
2023-02-15T22:30:44.819Z,72.75
2023-02-15T22:34:47.573Z,72.98
2023-02-15T22:38:49.004Z,73.65
2023-02-15T22:42:52.584Z,73.17
2023-02-15T22:46:54.105Z,73.45
2023-02-15T22:50:57.276Z,74.00
2023-02-15T22:54:58.661Z,72.61
2023-02-15T22:59:04.532Z,72.11
2023-02-15T23:03:14.312Z,73.32
2023-02-15T23:07:18.524Z,73.67
2023-02-15T23:11:19.997Z,74.92
2023-02-15T23:15:21.334Z,75.25
2023-02-15T23:19:22.801Z,75.85
2023-02-15T23:23:32.279Z,76.36
2023-02-15T23:27:33.666Z,76.38
2023-02-15T23:31:40.128Z,76.15
2023-02-15T23:35:41.620Z,76.53
2023-02-15T23:39:44.327Z,76.11
2023-02-15T23:43:49.551Z,77.08
2023-02-15T23:47:51.070Z,77.47
2023-02-15T23:51:54.074Z,77.15
2023-02-15T23:55:57.404Z,77.25
2023-02-15T23:59:58.801Z,77.56
